createdAt,value
2022-08-10T00:00:15.798Z,18.27
2022-08-10T00:03:22.613Z,18.31
2022-08-10T00:06:24.422Z,18.31
2022-08-10T00:09:26.193Z,18.30
2022-08-10T00:12:53.572Z,18.20
2022-08-10T00:15:55.202Z,18.17
2022-08-10T00:18:58.731Z,18.15
2022-08-10T00:22:00.607Z,18.15
2022-08-10T00:25:03.061Z,18.13
2022-08-10T00:28:04.956Z,18.13
2022-08-10T00:31:06.901Z,18.12
2022-08-10T00:34:23.601Z,18.13
2022-08-10T00:37:26.306Z,18.11
2022-08-10T00:40:36.886Z,18.11
2022-08-10T00:43:39.976Z,18.07
2022-08-10T00:46:42.251Z,18.00
2022-08-10T00:49:45.731Z,17.91
2022-08-10T00:52:51.014Z,17.88
2022-08-10T00:57:10.068Z,17.86
2022-08-10T00:59:21.351Z,17.70
2022-08-10T01:02:25.096Z,17.62
2022-08-10T01:05:31.516Z,17.62
2022-08-10T01:08:41.326Z,17.62
2022-08-10T01:12:39.817Z,17.60
2022-08-10T01:15:14.470Z,17.59
2022-08-10T01:18:43.910Z,17.54
2022-08-10T01:22:02.864Z,17.45
2022-08-10T01:25:20.814Z,17.43
2022-08-10T01:28:30.966Z,17.42
2022-08-10T01:31:40.931Z,17.39
2022-08-10T01:34:46.777Z,17.27
2022-08-10T01:37:52.348Z,17.15
2022-08-10T01:41:09.709Z,17.02
2022-08-10T01:44:13.720Z,16.98
2022-08-10T01:47:44.156Z,17.02
2022-08-10T01:50:53.190Z,17.11
2022-08-10T01:54:03.667Z,17.10
2022-08-10T01:57:09.067Z,17.06
2022-08-10T02:00:12.461Z,16.97
2022-08-10T02:03:22.391Z,16.82
2022-08-10T02:06:31.124Z,16.71
2022-08-10T02:09:36.803Z,16.66
2022-08-10T02:12:40.344Z,16.60
2022-08-10T02:16:01.093Z,16.53
2022-08-10T02:19:06.358Z,16.52
2022-08-10T02:22:38.191Z,16.48
2022-08-10T02:25:41.848Z,16.39
2022-08-10T02:28:46.339Z,16.30
2022-08-10T02:31:49.655Z,16.22
2022-08-10T02:34:57.401Z,16.21
2022-08-10T02:38:03.850Z,16.16
2022-08-10T02:45:14.470Z,16.16
2022-08-10T02:45:18.652Z,16.14
2022-08-10T02:48:02.665Z,16.10
2022-08-10T02:51:11.394Z,16.07
2022-08-10T02:54:16.557Z,16.04
2022-08-10T02:57:20.275Z,16.01
2022-08-10T03:00:23.403Z,15.99
2022-08-10T03:03:26.484Z,16.00
2022-08-10T03:06:34.737Z,15.98
2022-08-10T03:09:38.626Z,15.98
2022-08-10T03:12:41.166Z,15.92
2022-08-10T03:15:50.221Z,15.90
2022-08-10T03:18:56.373Z,15.86
2022-08-10T03:22:00.094Z,15.79
2022-08-10T03:25:02.984Z,15.76
2022-08-10T03:28:05.042Z,15.75
2022-08-10T03:31:06.710Z,15.74
2022-08-10T03:34:22.230Z,15.72
2022-08-10T03:37:32.103Z,15.71
2022-08-10T03:40:46.096Z,15.71
2022-08-10T03:43:49.046Z,15.72
2022-08-10T03:46:50.936Z,15.70
2022-08-10T03:49:54.122Z,15.69
2022-08-10T03:52:57.934Z,15.68
2022-08-10T03:56:28.332Z,15.67
2022-08-10T03:59:22.023Z,15.60
2022-08-10T04:02:45.115Z,15.51
2022-08-10T04:05:45.535Z,15.47
2022-08-10T04:08:48.814Z,15.41
2022-08-10T04:11:55.626Z,15.34
2022-08-10T04:14:57.472Z,15.30
2022-08-10T04:18:05.529Z,15.30
2022-08-10T04:21:09.895Z,15.30
2022-08-10T04:24:27.083Z,15.30
2022-08-10T04:27:33.991Z,15.26
2022-08-10T04:30:36.960Z,15.24
2022-08-10T04:33:42.452Z,15.26
2022-08-10T04:36:44.960Z,15.37
2022-08-10T04:39:50.987Z,15.41
2022-08-10T04:42:53.277Z,15.45
2022-08-10T04:46:42.691Z,15.50
2022-08-10T04:49:53.983Z,15.56
2022-08-10T04:52:53.435Z,15.62
2022-08-10T04:55:58.169Z,15.71
2022-08-10T04:58:59.923Z,15.80
2022-08-10T05:02:30.312Z,15.83
2022-08-10T05:05:23.722Z,15.91
2022-08-10T05:08:26.534Z,15.96
2022-08-10T05:11:33.214Z,16.02
2022-08-10T05:14:36.785Z,16.05
2022-08-10T05:17:39.275Z,16.07
2022-08-10T05:20:41.956Z,16.11
2022-08-10T05:23:45.012Z,16.17
2022-08-10T05:26:57.215Z,16.29
2022-08-10T05:30:11.438Z,16.40
2022-08-10T05:33:13.454Z,16.51
2022-08-10T05:36:16.044Z,16.62
2022-08-10T05:39:18.708Z,16.71
2022-08-10T05:42:32.310Z,16.78
2022-08-10T05:46:19.385Z,16.85
2022-08-10T05:49:01.056Z,16.94
2022-08-10T05:52:03.891Z,16.95
2022-08-10T05:55:07.397Z,16.96
2022-08-10T05:58:10.926Z,17.00
2022-08-10T06:01:13.490Z,17.09
2022-08-10T06:04:18.480Z,17.12
2022-08-10T06:07:28.082Z,17.17
2022-08-10T06:10:32.783Z,17.25
2022-08-10T06:13:59.481Z,17.28
2022-08-10T06:17:05.965Z,17.37
2022-08-10T06:20:08.446Z,17.46
2022-08-10T06:23:11.747Z,17.52
2022-08-10T06:26:15.683Z,17.56
2022-08-10T06:29:23.016Z,17.61
2022-08-10T06:32:27.776Z,17.66
2022-08-10T06:35:32.002Z,17.70
2022-08-10T06:38:37.448Z,17.77
2022-08-10T06:41:57.876Z,17.82
2022-08-10T06:45:06.219Z,17.89
2022-08-10T06:48:11.195Z,17.97
2022-08-10T06:51:14.525Z,18.03
2022-08-10T06:54:18.241Z,18.02
2022-08-10T06:57:21.398Z,18.07
2022-08-10T07:00:32.711Z,18.14
2022-08-10T07:03:38.939Z,18.24
2022-08-10T07:06:42.900Z,18.35
2022-08-10T07:09:45.785Z,18.43
2022-08-10T07:12:54.395Z,18.51
2022-08-10T07:15:59.938Z,18.57
2022-08-10T07:19:03.023Z,18.65
2022-08-10T07:22:05.626Z,18.73
2022-08-10T07:25:08.921Z,18.81
2022-08-10T07:28:11.497Z,18.87
2022-08-10T07:31:54.433Z,18.92
2022-08-10T07:34:39.601Z,18.99
2022-08-10T07:37:44.962Z,19.04
2022-08-10T07:40:47.640Z,19.10
2022-08-10T07:43:51.023Z,19.14
2022-08-10T07:46:56.902Z,19.23
2022-08-10T07:50:02.125Z,19.30
2022-08-10T07:53:04.447Z,19.37
2022-08-10T07:56:16.941Z,19.39
2022-08-10T07:59:32.495Z,19.51
2022-08-10T08:02:37.549Z,19.58
2022-08-10T08:05:59.205Z,19.66
2022-08-10T08:09:03.626Z,19.74
2022-08-10T08:12:06.787Z,19.81
2022-08-10T08:16:15.888Z,19.86
2022-08-10T08:18:36.934Z,19.98
2022-08-10T08:24:10.408Z,20.10
2022-08-10T08:25:01.526Z,20.13
2022-08-10T08:28:04.934Z,20.18
2022-08-10T08:31:07.869Z,20.24
2022-08-10T08:34:14.796Z,20.51
2022-08-10T08:38:27.690Z,20.60
2022-08-10T08:40:45.097Z,20.51
2022-08-10T08:43:56.133Z,20.63
2022-08-10T08:48:00.993Z,20.77
2022-08-10T08:50:37.150Z,20.90
2022-08-10T08:54:02.199Z,21.01
2022-08-10T08:57:11.383Z,21.11
2022-08-10T09:00:16.149Z,21.17
2022-08-10T09:03:28.441Z,21.19
2022-08-10T09:06:42.074Z,21.51
2022-08-10T09:09:59.553Z,21.64
2022-08-10T09:13:05.041Z,21.61
2022-08-10T09:16:17.557Z,21.65
2022-08-10T09:19:34.955Z,21.67
2022-08-10T09:22:43.198Z,21.66
2022-08-10T09:25:48.593Z,21.74
2022-08-10T09:29:12.249Z,21.86
2022-08-10T09:36:16.445Z,21.93
2022-08-10T09:36:20.493Z,22.06
2022-08-10T09:40:56.169Z,22.28
2022-08-10T09:42:42.881Z,22.43
2022-08-10T09:45:47.947Z,22.42
2022-08-10T09:48:57.402Z,22.46
2022-08-10T09:52:07.274Z,22.50
2022-08-10T09:55:17.220Z,22.62
2022-08-10T09:58:34.681Z,22.69
2022-08-10T10:02:00.448Z,22.78
2022-08-10T10:05:06.907Z,22.88
2022-08-10T10:08:13.512Z,22.85
2022-08-10T10:11:21.194Z,22.89
2022-08-10T10:14:27.907Z,23.05
2022-08-10T10:17:38.292Z,23.20
2022-08-10T10:20:42.263Z,23.23
2022-08-10T10:24:19.754Z,23.26
2022-08-10T10:27:20.642Z,23.38
2022-08-10T10:30:24.239Z,23.54
2022-08-10T10:33:33.010Z,23.58
2022-08-10T10:36:35.390Z,23.50
2022-08-10T10:39:40.198Z,23.66
2022-08-10T10:42:49.792Z,23.86
2022-08-10T10:45:57.807Z,23.91
2022-08-10T10:49:08.284Z,23.96
2022-08-10T10:52:19.834Z,23.91
2022-08-10T10:55:26.319Z,24.06
2022-08-10T10:58:34.107Z,24.05
2022-08-10T11:01:41.973Z,24.00
2022-08-10T11:04:47.011Z,24.24
2022-08-10T11:07:53.352Z,24.45
2022-08-10T11:10:56.492Z,24.47
2022-08-10T11:14:25.621Z,24.62
2022-08-10T11:17:33.217Z,24.58
2022-08-10T11:20:38.691Z,24.83
2022-08-10T11:23:44.793Z,24.71
2022-08-10T11:27:08.958Z,24.57
2022-08-10T11:30:24.381Z,24.62
2022-08-10T11:33:30.701Z,24.84
2022-08-10T11:36:41.816Z,24.97
2022-08-10T11:39:48.671Z,25.09
2022-08-10T11:42:58.071Z,25.17
2022-08-10T11:46:07.987Z,25.37
2022-08-10T11:49:13.220Z,25.59
2022-08-10T11:52:16.951Z,25.59
2022-08-10T11:55:19.783Z,25.59
2022-08-10T11:58:40.975Z,25.65
2022-08-10T12:01:45.624Z,25.72
2022-08-10T12:04:51.106Z,25.71
2022-08-10T12:10:07.707Z,25.67
2022-08-10T12:11:24.143Z,25.73
2022-08-10T12:14:30.851Z,25.81
2022-08-10T12:17:35.197Z,25.76
2022-08-10T12:20:39.019Z,25.78
2022-08-10T12:23:43.746Z,25.85
2022-08-10T12:26:50.038Z,25.92
2022-08-10T12:29:57.509Z,25.87
2022-08-10T12:33:03.339Z,25.90
2022-08-10T12:36:18.292Z,25.88
2022-08-10T12:39:22.308Z,25.84
2022-08-10T12:42:38.729Z,25.71
2022-08-10T12:45:49.000Z,25.87
2022-08-10T12:48:54.545Z,26.04
2022-08-10T12:52:01.334Z,26.24
2022-08-10T12:55:07.227Z,26.30
2022-08-10T12:58:59.843Z,26.21
2022-08-10T13:02:09.919Z,26.32
2022-08-10T13:04:59.574Z,26.38
2022-08-10T13:08:27.057Z,26.44
2022-08-10T13:12:38.579Z,26.42
2022-08-10T13:14:54.026Z,26.33
2022-08-10T13:17:58.158Z,26.29
2022-08-10T13:21:04.599Z,26.35
2022-08-10T13:24:25.444Z,26.33
2022-08-10T13:28:02.613Z,26.22
2022-08-10T13:30:51.495Z,26.32
2022-08-10T13:34:40.303Z,26.50
2022-08-10T13:37:23.135Z,26.53
2022-08-10T13:40:25.790Z,26.65
2022-08-10T13:43:27.902Z,26.63
2022-08-10T13:46:29.979Z,26.74
2022-08-10T13:49:33.076Z,26.74
2022-08-10T13:52:36.952Z,26.76
2022-08-10T13:55:54.538Z,26.75
2022-08-10T13:58:58.862Z,26.77
2022-08-10T14:02:01.824Z,26.79
2022-08-10T14:05:04.985Z,26.81
2022-08-10T14:08:12.431Z,26.80
2022-08-10T14:11:16.192Z,26.79
2022-08-10T14:14:18.736Z,26.80
2022-08-10T14:17:21.915Z,26.72
2022-08-10T14:20:26.728Z,26.70
2022-08-10T14:23:32.493Z,26.79
2022-08-10T14:26:34.980Z,26.82
2022-08-10T14:29:41.602Z,26.75
2022-08-10T14:32:45.552Z,26.70
2022-08-10T14:36:23.789Z,26.67
2022-08-10T14:39:12.578Z,26.71
2022-08-10T14:42:27.284Z,26.66
2022-08-10T14:45:31.716Z,26.65
2022-08-10T14:48:34.753Z,26.56
2022-08-10T14:51:44.446Z,26.55
2022-08-10T14:54:49.767Z,26.56
2022-08-10T14:58:17.040Z,26.52
2022-08-10T15:01:19.476Z,26.47
2022-08-10T15:04:23.573Z,26.54
2022-08-10T15:07:32.713Z,26.57
2022-08-10T15:10:36.797Z,26.50
2022-08-10T15:13:44.883Z,26.48
2022-08-10T15:17:08.443Z,26.44
2022-08-10T15:20:20.365Z,26.42
2022-08-10T15:23:29.753Z,26.43
2022-08-10T15:26:35.857Z,26.45
2022-08-10T15:29:57.212Z,26.48
2022-08-10T15:34:02.103Z,26.36
2022-08-10T15:37:36.272Z,26.26
2022-08-10T15:40:31.176Z,26.29
2022-08-10T15:43:44.720Z,26.27
2022-08-10T15:46:49.818Z,26.28
2022-08-10T15:49:56.076Z,26.16
2022-08-10T15:53:02.790Z,26.22
2022-08-10T15:56:08.123Z,26.19
2022-08-10T15:59:25.126Z,26.14
2022-08-10T16:02:31.354Z,26.10
2022-08-10T16:06:00.123Z,26.07
2022-08-10T16:10:23.381Z,26.05
2022-08-10T16:12:29.133Z,26.00
2022-08-10T16:15:35.572Z,25.98
2022-08-10T16:18:39.649Z,25.93
2022-08-10T16:21:42.582Z,25.89
2022-08-10T16:24:47.622Z,25.85
2022-08-10T16:27:49.489Z,25.78
2022-08-10T16:30:54.124Z,25.77
2022-08-10T16:33:58.031Z,25.88
2022-08-10T16:37:01.647Z,25.76
2022-08-10T16:40:06.626Z,25.67
2022-08-10T16:43:12.430Z,25.57
2022-08-10T16:46:21.644Z,25.62
2022-08-10T16:49:24.170Z,25.47
2022-08-10T16:52:28.578Z,25.37
2022-08-10T16:55:49.221Z,25.37
2022-08-10T16:58:54.096Z,25.28
2022-08-10T17:01:58.348Z,25.28
2022-08-10T17:05:00.833Z,25.29
2022-08-10T17:08:04.311Z,25.22
2022-08-10T17:11:06.318Z,25.19
2022-08-10T17:14:09.127Z,25.15
2022-08-10T17:17:18.040Z,25.06
2022-08-10T17:20:30.823Z,24.98
2022-08-10T17:23:35.492Z,24.89
2022-08-10T17:26:37.929Z,24.82
2022-08-10T17:29:57.817Z,24.74
2022-08-10T17:33:06.537Z,24.68
2022-08-10T17:36:08.635Z,24.58
2022-08-10T17:39:12.907Z,24.52
2022-08-10T17:42:20.767Z,24.46
2022-08-10T17:45:48.801Z,24.40
2022-08-10T17:48:47.751Z,24.36
2022-08-10T17:51:51.194Z,24.28
2022-08-10T17:54:57.080Z,24.20
2022-08-10T17:58:02.107Z,24.15
2022-08-10T18:01:41.346Z,24.09
2022-08-10T18:04:31.992Z,23.99
2022-08-10T18:07:40.795Z,23.91
2022-08-10T18:10:43.161Z,23.83
2022-08-10T18:13:55.830Z,23.76
2022-08-10T18:16:59.313Z,23.69
2022-08-10T18:33:32.544Z,23.19
2022-08-10T18:36:42.128Z,23.09
2022-08-10T18:39:48.572Z,23.07
2022-08-10T18:42:53.717Z,23.01
2022-08-10T18:45:59.405Z,22.90
2022-08-10T18:55:14.326Z,22.58
2022-08-10T18:58:46.560Z,22.62
2022-08-10T19:02:04.713Z,22.51
2022-08-10T19:05:31.061Z,22.47
2022-08-10T19:09:46.040Z,22.45
2022-08-10T19:16:07.610Z,22.16
2022-08-10T19:19:32.060Z,22.09
2022-08-10T19:22:46.269Z,21.98
2022-08-10T19:26:41.624Z,21.92
2022-08-10T19:30:09.819Z,21.83
2022-08-10T19:33:22.519Z,21.75
2022-08-10T19:36:34.843Z,21.66
2022-08-10T19:39:50.855Z,21.68
2022-08-10T19:43:09.253Z,21.60
2022-08-10T19:46:18.067Z,21.45
2022-08-10T19:49:37.654Z,21.52
2022-08-10T19:52:49.559Z,21.45
2022-08-10T19:56:30.647Z,21.30
2022-08-10T20:00:17.275Z,21.25
2022-08-10T20:03:13.200Z,21.25
2022-08-10T20:06:22.529Z,21.24
2022-08-10T20:09:34.416Z,21.20
2022-08-10T20:12:45.713Z,21.26
2022-08-10T20:15:59.083Z,21.29
2022-08-10T20:19:09.826Z,21.25
2022-08-10T20:22:28.944Z,21.28
2022-08-10T20:25:34.311Z,21.27
2022-08-10T20:28:41.700Z,21.33
2022-08-10T20:31:54.359Z,21.28
2022-08-10T20:35:04.920Z,21.13
2022-08-10T20:38:10.934Z,21.04
2022-08-10T20:41:24.655Z,21.00
2022-08-10T20:44:41.941Z,20.97
2022-08-10T20:47:54.163Z,20.90
2022-08-10T20:51:03.491Z,20.84
2022-08-10T20:54:12.229Z,20.70
2022-08-10T20:57:55.647Z,20.72
2022-08-10T21:01:05.992Z,20.67
2022-08-10T21:04:19.144Z,20.63
2022-08-10T21:08:01.358Z,20.63
2022-08-10T21:11:16.067Z,20.67
2022-08-10T21:14:38.814Z,20.62
2022-08-10T21:17:51.430Z,20.55
2022-08-10T21:25:07.435Z,20.42
2022-08-10T21:28:49.811Z,20.39
2022-08-10T21:32:07.130Z,20.30
2022-08-10T21:35:37.547Z,20.27
2022-08-10T21:38:51.755Z,20.26
2022-08-10T21:42:37.671Z,20.26
2022-08-10T21:46:16.321Z,20.29
2022-08-10T21:49:53.264Z,20.33
2022-08-10T21:53:43.783Z,20.33
2022-08-10T21:57:21.544Z,20.24
2022-08-10T22:00:44.867Z,20.22
2022-08-10T22:04:09.763Z,20.13
2022-08-10T22:07:38.482Z,20.14
2022-08-10T22:11:06.794Z,20.06
2022-08-10T22:14:33.541Z,20.09
2022-08-10T22:18:10.885Z,19.98
2022-08-10T22:21:48.529Z,19.95
2022-08-10T22:25:23.035Z,19.90
2022-08-10T22:28:43.706Z,19.81
2022-08-10T22:32:18.820Z,19.79
2022-08-10T22:36:11.360Z,19.69
2022-08-10T22:40:10.228Z,19.69
2022-08-10T22:43:35.776Z,19.61
2022-08-10T22:47:00.569Z,19.66
2022-08-10T22:50:07.780Z,19.70
2022-08-10T22:53:27.535Z,19.73
2022-08-10T22:56:56.064Z,19.68
2022-08-10T22:59:59.250Z,19.78
2022-08-10T23:03:12.033Z,19.80
2022-08-10T23:06:19.762Z,19.83
2022-08-10T23:09:23.940Z,19.88
2022-08-10T23:12:35.654Z,19.87
2022-08-10T23:15:59.145Z,19.81
2022-08-10T23:19:10.153Z,19.83
2022-08-10T23:22:15.526Z,19.77
2022-08-10T23:25:29.959Z,19.69
2022-08-10T23:28:58.093Z,19.69
2022-08-10T23:32:07.412Z,19.53
2022-08-10T23:36:27.798Z,19.58
2022-08-10T23:38:41.467Z,19.53
2022-08-10T23:41:45.193Z,19.54
2022-08-10T23:45:00.293Z,19.46
2022-08-10T23:48:04.119Z,19.56
2022-08-10T23:51:16.069Z,19.53
2022-08-10T23:54:27.549Z,19.55
2022-08-10T23:57:32.631Z,19.47
